createdAt,value
2022-08-18T00:00:55.435Z,20.67
2022-08-18T00:05:53.614Z,20.51
2022-08-18T00:10:53.733Z,20.03
2022-08-18T00:15:51.870Z,20.11
2022-08-18T00:20:51.217Z,20.03
2022-08-18T00:25:50.348Z,19.92
2022-08-18T00:30:49.493Z,19.76
2022-08-18T00:35:49.779Z,19.86
2022-08-18T00:40:48.925Z,20.23
2022-08-18T00:45:48.261Z,20.31
2022-08-18T00:50:46.397Z,19.96
2022-08-18T00:55:53.071Z,20.73
2022-08-18T01:00:44.792Z,20.14
2022-08-18T01:05:43.960Z,20.02
2022-08-18T01:10:44.086Z,20.67
2022-08-18T01:15:42.392Z,19.99
2022-08-18T01:20:42.750Z,19.96
2022-08-18T01:25:40.862Z,19.84
2022-08-18T01:30:42.187Z,19.88
2022-08-18T01:35:41.902Z,19.54
2022-08-18T01:41:24.148Z,18.98
2022-08-18T01:45:36.997Z,19.02
2022-08-18T01:50:38.156Z,19.07
2022-08-18T01:55:36.365Z,19.48
2022-08-18T02:00:36.503Z,19.59
2022-08-18T02:05:34.814Z,19.78
2022-08-18T02:10:34.118Z,19.73
2022-08-18T02:15:33.325Z,19.50
2022-08-18T02:20:32.478Z,19.55
2022-08-18T02:25:32.690Z,19.21
2022-08-18T02:30:31.829Z,19.26
2022-08-18T02:35:29.955Z,19.14
2022-08-18T02:40:29.280Z,19.71
2022-08-18T02:45:29.598Z,18.94
2022-08-18T02:50:27.879Z,19.48
2022-08-18T02:55:27.224Z,19.54
2022-08-18T03:00:29.533Z,19.61
2022-08-18T03:05:26.645Z,19.76
2022-08-18T03:10:32.628Z,19.63
2022-08-18T03:15:24.136Z,19.63
2022-08-18T03:20:30.592Z,19.36
2022-08-18T03:25:24.617Z,19.43
2022-08-18T03:30:22.904Z,19.21
2022-08-18T03:35:21.228Z,19.50
2022-08-18T03:40:22.387Z,19.68
2022-08-18T03:45:19.505Z,19.66
2022-08-18T03:50:18.861Z,19.47
2022-08-18T03:55:18.185Z,19.41
2022-08-18T04:00:19.469Z,20.95
2022-08-18T04:05:16.749Z,20.17
2022-08-18T04:10:19.460Z,20.13
2022-08-18T04:15:17.291Z,20.88
2022-08-18T04:20:14.624Z,19.66
2022-08-18T04:25:14.974Z,19.56
2022-08-18T04:30:14.225Z,20.05
2022-08-18T04:35:14.255Z,20.98
2022-08-18T04:40:12.830Z,21.62
2022-08-18T04:45:10.904Z,22.15
2022-08-18T04:50:11.247Z,21.62
2022-08-18T04:55:10.359Z,21.21
2022-08-18T05:00:08.664Z,21.53
2022-08-18T05:05:08.020Z,20.89
2022-08-18T05:10:08.114Z,18.94
2022-08-18T05:15:07.462Z,18.69
2022-08-18T05:20:06.778Z,19.00
2022-08-18T08:44:14.759Z,22.91
2022-08-18T08:49:14.077Z,22.47
2022-08-18T08:54:13.375Z,22.51
2022-08-18T08:59:14.658Z,22.80
2022-08-18T09:04:11.951Z,23.80
2022-08-18T09:09:12.232Z,22.90
2022-08-18T09:14:11.566Z,23.23
2022-08-18T09:19:10.887Z,22.54
2022-08-18T09:24:10.163Z,23.70
2022-08-18T09:29:08.440Z,22.82
2022-08-18T09:34:10.663Z,22.77
2022-08-18T09:39:06.979Z,23.43
2022-08-18T09:44:07.240Z,23.02
2022-08-18T09:49:05.388Z,22.86
2022-08-18T09:54:06.725Z,23.38
2022-08-18T09:59:10.904Z,23.53
2022-08-18T10:04:05.023Z,23.88
2022-08-18T10:09:02.312Z,23.25
2022-08-18T10:14:02.486Z,23.94
2022-08-18T10:19:00.702Z,23.61
2022-08-18T10:24:31.699Z,23.33
2022-08-18T10:29:01.140Z,23.40
2022-08-18T10:33:59.318Z,23.87
2022-08-18T10:38:57.410Z,23.78
2022-08-18T10:43:58.864Z,24.24
2022-08-18T10:48:57.983Z,24.13
2022-08-18T10:53:55.240Z,24.20
2022-08-18T10:58:57.468Z,24.40
2022-08-18T11:03:55.595Z,24.55
2022-08-18T11:08:55.400Z,24.21
2022-08-18T11:13:56.907Z,23.95
2022-08-18T11:18:52.880Z,24.57
2022-08-18T11:23:50.347Z,24.35
2022-08-18T11:28:50.633Z,24.42
2022-08-18T11:33:51.248Z,24.67
2022-08-18T11:38:49.161Z,24.90
2022-08-18T11:43:50.731Z,24.77
2022-08-18T11:48:53.710Z,24.47
2022-08-18T11:53:45.795Z,23.54
2022-08-18T11:58:44.950Z,24.28
2022-08-18T12:03:45.250Z,23.73
2022-08-18T12:08:57.204Z,23.66
2022-08-18T12:13:42.750Z,23.84
2022-08-18T12:18:42.082Z,24.06
2022-08-18T12:23:49.643Z,24.76
2022-08-18T12:28:41.584Z,24.61
2022-08-18T12:38:40.139Z,24.43
2022-08-18T12:43:38.547Z,24.69
2022-08-18T12:48:39.677Z,24.21
2022-08-18T12:53:59.503Z,23.93
2022-08-18T12:58:36.419Z,24.21
2022-08-18T13:03:52.801Z,23.83
2022-08-18T13:08:48.152Z,23.25
2022-08-18T13:13:33.754Z,23.20
2022-08-18T13:18:32.958Z,23.25
2022-08-18T13:23:32.741Z,23.57
2022-08-18T13:28:35.749Z,23.38
2022-08-18T13:33:53.680Z,23.47
2022-08-18T13:38:29.787Z,22.97
2022-08-18T13:43:28.955Z,23.54
2022-08-18T13:48:27.077Z,23.12
2022-08-18T13:53:27.570Z,22.62
2022-08-18T13:58:27.628Z,22.39
2022-08-18T14:03:42.469Z,22.52
2022-08-18T14:08:25.974Z,22.15
2022-08-18T14:13:24.716Z,21.91
2022-08-18T14:18:29.094Z,22.18
2022-08-18T14:23:24.566Z,21.71
2022-08-18T14:28:24.701Z,21.25
2022-08-18T14:33:20.838Z,21.40
2022-08-18T14:38:19.008Z,21.17
2022-08-18T14:43:20.373Z,21.06
2022-08-18T14:48:20.555Z,23.33
2022-08-18T14:53:18.840Z,24.12
2022-08-18T14:58:18.965Z,24.43
2022-08-18T15:03:16.254Z,24.76
2022-08-18T15:08:17.616Z,24.91
2022-08-18T15:13:15.717Z,25.03
2022-08-18T15:18:13.974Z,25.13
2022-08-18T15:23:14.282Z,25.20
2022-08-18T15:28:16.281Z,25.14
2022-08-18T15:33:11.892Z,25.25
2022-08-18T15:38:11.238Z,25.32
2022-08-18T15:43:10.665Z,25.38
2022-08-18T15:48:09.560Z,25.39
2022-08-18T15:53:09.820Z,25.42
2022-08-18T15:58:10.854Z,25.43
2022-08-18T16:03:08.977Z,25.46
2022-08-18T16:08:06.578Z,25.46
2022-08-18T16:13:05.744Z,25.46
2022-08-18T16:18:04.863Z,25.51
2022-08-18T16:23:06.001Z,25.50
2022-08-18T16:28:04.351Z,25.52
2022-08-18T16:33:03.513Z,25.60
2022-08-18T16:38:01.794Z,25.60
2022-08-18T16:43:01.113Z,25.58
2022-08-18T16:47:59.399Z,25.62
2022-08-18T16:52:58.696Z,25.43
2022-08-18T16:57:59.020Z,25.32
2022-08-18T17:02:58.365Z,25.20
2022-08-18T17:07:56.523Z,25.17
2022-08-18T17:13:00.740Z,25.14
2022-08-18T17:17:56.904Z,25.00
2022-08-18T17:22:55.234Z,24.98
2022-08-18T17:27:54.555Z,24.88
2022-08-18T17:32:54.305Z,24.73
2022-08-18T17:37:53.133Z,24.67
2022-08-18T17:42:51.697Z,24.60
2022-08-18T17:47:51.588Z,24.57
2022-08-18T17:52:53.409Z,24.31
2022-08-18T17:57:56.458Z,24.21
2022-08-18T18:02:50.048Z,24.32
2022-08-18T18:07:48.443Z,24.16
2022-08-18T18:12:47.618Z,24.13
2022-08-18T18:17:47.760Z,24.12
2022-08-18T18:22:46.533Z,24.02
2022-08-18T18:27:47.253Z,24.03
2022-08-18T18:32:45.666Z,24.00
2022-08-18T18:37:43.591Z,24.00
2022-08-18T18:42:43.870Z,23.98
2022-08-18T19:09:40.251Z,20.35
2022-08-18T19:14:38.540Z,20.31
2022-08-18T19:19:39.359Z,20.28
2022-08-18T19:24:37.221Z,20.10
2022-08-18T19:29:36.305Z,20.17
2022-08-18T19:34:36.624Z,19.71
2022-08-18T19:39:38.969Z,19.43
2022-08-18T19:44:34.005Z,19.18
2022-08-18T19:49:35.332Z,19.06
2022-08-18T19:54:33.576Z,19.00
2022-08-18T19:59:35.253Z,18.95
2022-08-18T20:04:32.066Z,19.11
2022-08-18T20:09:30.400Z,18.95
2022-08-18T20:14:30.694Z,19.22
2022-08-18T20:19:29.030Z,19.16
2022-08-18T20:24:28.413Z,19.55
2022-08-18T20:29:28.498Z,19.22
2022-08-18T20:34:26.806Z,18.98
2022-08-18T20:39:28.633Z,19.48
2022-08-18T20:44:29.377Z,18.99
2022-08-18T20:49:24.563Z,19.02
2022-08-18T20:54:23.821Z,18.88
2022-08-18T20:59:22.911Z,18.85
2022-08-18T21:04:22.217Z,18.85
2022-08-18T21:09:26.676Z,18.81
2022-08-18T21:14:20.786Z,19.06
2022-08-18T21:19:19.983Z,18.91
2022-08-18T21:24:19.300Z,18.88
2022-08-18T21:29:18.610Z,19.00
2022-08-18T21:34:18.950Z,18.75
2022-08-18T21:39:17.267Z,18.75
2022-08-18T21:44:17.435Z,19.04
2022-08-18T21:49:15.793Z,20.20
2022-08-18T21:54:15.902Z,22.12
2022-08-18T21:59:16.207Z,22.10
2022-08-18T22:04:14.512Z,19.77
2022-08-18T22:09:12.890Z,20.38
2022-08-18T22:14:13.003Z,19.33
2022-08-18T22:19:12.370Z,19.04
2022-08-18T22:24:10.618Z,18.95
2022-08-18T22:29:09.871Z,18.76
2022-08-18T22:34:10.157Z,19.44
2022-08-18T22:39:09.422Z,19.16
2022-08-18T22:44:07.736Z,19.25
2022-08-18T22:49:07.054Z,19.19
2022-08-18T22:54:06.380Z,18.91
2022-08-18T22:59:15.572Z,18.82
2022-08-18T23:04:05.875Z,18.84
2022-08-18T23:09:06.189Z,18.82
2022-08-18T23:14:03.518Z,18.66
2022-08-18T23:19:03.713Z,18.75
2022-08-18T23:24:03.886Z,18.52
2022-08-18T23:29:00.013Z,18.58
2022-08-18T23:34:00.141Z,19.06
2022-08-18T23:39:00.475Z,18.88
2022-08-18T23:43:59.710Z,18.62
2022-08-18T23:48:56.892Z,18.50
2022-08-18T23:53:59.198Z,18.81
2022-08-18T23:58:57.523Z,18.84
